EDT,Max TemperatureF,Mean TemperatureF,Min TemperatureF,Max Dew PointF,MeanDew PointF,Min DewpointF,Max Humidity, Mean Humidity, Min Humidity, Max Sea Level PressureIn, Mean Sea Level PressureIn, Min Sea Level PressureIn, Max VisibilityMiles, Mean VisibilityMiles, Min VisibilityMiles, Max Wind SpeedMPH, Mean Wind SpeedMPH, Max Gust SpeedMPH,PrecipitationIn, CloudCover, Events, WindDirDegrees
2013-4-1,44,35,26,39,31,10,100,69,38,29.79,29.65,29.53,10,9,2,24,10,36,0.16,7,Rain,217
2013-4-2,31,26,21,18,11,6,77,58,39,29.91,29.83,29.75,10,9,2,25,12,38,T,7,Snow,270
2013-4-3,37,30,22,19,9,3,74,50,26,30.22,30.01,29.85,10,10,4,28,15,38,T,3,Snow,291
2013-4-4,48,35,21,19,11,2,62,41,19,30.30,30.15,29.96,10,10,2,17,8,28,0.00,0,,231
2013-4-5,46,37,27,28,21,14,75,52,28,29.98,29.88,29.81,10,9,2,22,11,30,T,5,Snow,287
2013-4-6,35,28,20,18,8,0,77,50,23,30.36,30.22,30.01,10,9,2,23,10,35,T,4,Snow,316
2013-4-7,54,40,26,32,20,7,67,48,28,30.32,30.07,29.90,10,10,10,31,12,39,T,5,Rain,174
2013-4-8,52,45,37,36,30,25,76,56,35,30.18,30.09,29.91,10,10,10,17,6,23,T,5,,311
2013-4-9,48,42,36,43,39,34,100,86,71,30.09,29.97,29.86,10,9,2,16,5,22,0.13,7,Rain,293
2013-4-10,47,42,37,43,39,37,100,88,76,30.07,29.98,29.94,10,4,0,9,2,20,0.20,8,Fog-Rain,330
2013-4-11,39,35,31,39,26,15,100,70,40,30.25,30.07,29.93,10,8,1,13,7,18,0.00,6,,347
2013-4-12,32,30,28,30,26,16,100,77,53,30.23,30.01,29.86,10,5,1,20,7,25,0.59,8,Rain-Snow,160
2013-4-13,46,39,31,37,32,28,100,79,58,29.95,29.87,29.80,10,9,3,13,3,18,0.02,8,Rain-Snow,192
2013-4-14,41,33,25,36,32,27,100,85,70,30.28,30.05,29.92,10,7,0,13,4,24,0.22,7,Fog-Rain-Snow,303
2013-4-15,57,40,22,35,28,21,100,68,35,30.43,30.34,30.27,10,8,0,15,5,20,0.00,1,Fog,153
2013-4-16,57,49,41,52,40,31,86,68,50,30.32,30.14,29.98,10,10,4,20,10,25,0.09,6,Rain,198
2013-4-17,53,41,29,38,30,25,75,55,35,30.42,30.29,30.13,10,10,10,20,7,24,0.00,2,,325
2013-4-18,60,44,28,33,28,23,92,65,37,30.44,30.27,30.04,10,10,10,28,10,41,0.01,5,Rain,174
2013-4-19,74,60,46,59,50,36,100,71,41,30.03,29.75,29.52,10,8,2,29,13,43,0.47,6,Rain-Thunderstorm,187
2013-4-20,49,40,31,41,27,17,85,60,34,30.30,29.90,29.70,10,10,10,22,10,32,0.04,7,Rain,256
2013-4-21,43,34,24,17,14,10,63,45,27,30.75,30.59,30.32,10,10,10,17,7,25,T,3,,310
2013-4-22,54,38,21,24,16,11,84,53,21,30.81,30.71,30.61,10,10,10,18,7,29,0.00,0,,144
2013-4-23,46,36,25,34,28,22,85,69,53,30.62,30.43,30.22,10,10,10,16,6,22,0.00,5,,182
2013-4-24,74,56,37,43,36,28,85,52,19,30.20,29.95,29.68,10,10,10,18,7,23,T,5,,173
2013-4-25,59,44,29,49,28,20,78,54,29,30.37,30.12,29.68,10,10,10,29,7,40,0.02,4,,284
2013-4-26,53,39,25,32,27,23,89,63,36,30.51,30.45,30.36,10,10,10,15,2,21,T,5,Rain,316
2013-4-27,60,44,27,36,28,19,100,62,24,30.51,30.44,30.36,10,6,0,13,1,18,0.00,3,Fog,328
2013-4-28,69,48,27,34,28,24,85,53,20,30.39,30.30,30.19,10,10,10,18,5,21,0.00,0,,164
2013-4-29,66,54,42,40,35,32,70,51,31,30.26,30.22,30.18,10,10,10,22,7,28,0.00,4,,181
2013-4-30,71,61,50,46,38,32,71,52,33,30.35,30.30,30.24,10,10,10,14,4,21,T,7,Rain,165